Flight Briefing for CPX202

Departure Arrival
Washington Dulles International Airport (KIAD)
Click to view FAA NOTAMS
Miami International Airport (KMIA)
Click to view FAA NOTAMS
Departure Time Arrival Time
N/A N/A
Aircraft Distance
B767-300BDSF 894nm
Departure METAR Arrival METAR
KIAD 232152Z 20010KT 10SM SCT110 BKN250 24/19 A2999 RMK AO2 SLP153 T02390189 $ KMIA 232153Z 06014G22KT 10SM SCT030 BKN037 29/21 A3007 RMK AO2 SLP181 T02890206
Suggested Route
JDUBB2 GSO J75 CAE J51 SAV J103 OMN HILEY7


View recent IFR Routes data
Notes



Charts and Procedures

Charts for KIAD
No chart available
Charts for KMIA
No chart available

Windy.com Weather Map